Data for 02/01/2005

Time Sea-Level Adjusted Pressure Absolute Pressure Temperature Relative Humidity Dew Point   
(mb) (inHg) (mb) (inHg) (C) (F) (%) (C) (F)
00:05 1023 30.21 852 25.16 2.8 37 59 -4.5 23.8
00:10 1023 30.21 852 25.16 2.8 37 58 -4.8 23.4
00:15 1023 30.21 852 25.16 2.8 37.1 55 -5.3 22.5
00:20 1023 30.21 852 25.16 2.9 37.2 56 -5.1 22.8
00:25 1023 30.21 852 25.16 2.8 37.1 56 -5.1 22.8
00:30 1023 30.21 852 25.16 2.7 36.9 56 -5.2 22.6
00:35 1023 30.21 852 25.16 2.6 36.7 55 -5.6 22
00:40 1023 30.21 852 25.16 2.4 36.3 55 -5.8 21.6
00:45 1023 30.21 852 25.16 2.3 36.2 54 -5.9 21.3
00:50 1023 30.21 852 25.16 2.2 36 54 -6 21.1
00:55 1023 30.21 853 25.19 2.2 36 55 -6 21.2
01:00 1023 30.21 853 25.19 2.1 35.7 58 -5.4 22.2
01:05 1023 30.21 853 25.19 1.8 35.2 58 -5.6 22
01:10 1023 30.21 853 25.19 1.6 35 58 -5.8 21.6
01:15 1024 30.24 853 25.19 1.5 34.7 58 -5.9 21.4
01:20 1024 30.24 853 25.19 1.5 34.6 59 -5.8 21.6
01:25 1024 30.24 853 25.19 1.4 34.5 59 -5.8 21.5
01:30 1024 30.24 853 25.19 1.3 34.4 60 -5.7 21.8
01:35 1024 30.24 853 25.19 1.2 34.1 61 -5.6 21.9
01:40 1024 30.24 853 25.19 1 33.8 60 -6 21.3
01:45 1024 30.24 853 25.19 0.9 33.6 61 -5.8 21.5
01:50 1024 30.24 853 25.19 0.7 33.2 62 -5.8 21.6
01:55 1024 30.24 853 25.19 0.6 33 63 -5.7 21.8
02:00 1024 30.24 853 25.19 0.5 32.8 64 -5.6 21.8
02:05 1024 30.24 854 25.22 0.4 32.7 64 -5.7 21.8
02:10 1024 30.24 854 25.22 0.3 32.5 65 -5.6 21.9
02:15 1024 30.24 853 25.19 0.1 32.2 65 -5.7 21.8
02:20 1024 30.24 854 25.22 -0 32 66 -5.7 21.7
02:25 1024 30.24 854 25.22 -0 31.9 66 -5.7 21.7
02:30 1024 30.24 854 25.22 0 32.1 65 -5.7 21.7
02:35 1024 30.24 854 25.22 0 32 65 -5.8 21.6
02:40 1024 30.24 853 25.19 -0.2 31.7 66 -5.7 21.7
02:45 1024 30.24 854 25.22 -0.4 31.2 67 -5.8 21.5
02:50 1024 30.24 854 25.22 -0.5 31.1 67 -5.9 21.4
02:55 1024 30.24 854 25.22 -0.5 31.1 67 -5.9 21.3
03:00 1024 30.24 854 25.22 -0.7 30.8 68 -5.9 21.4
03:05 1025 30.27 854 25.22 -0.6 31 67 -6 21.2
03:10 1025 30.27 854 25.22 -0.5 31.2 66 -6 21.1
03:15 1025 30.27 854 25.22 -0.6 30.9 67 -5.9 21.4
03:20 1024 30.24 854 25.22 -0.8 30.6 67 -6.1 21.1
03:25 1024 30.24 854 25.22 -1 30.1 69 -6 21.1
03:30 1024 30.24 854 25.22 -1.2 29.8 69 -6.3 20.7
03:35 1024 30.24 854 25.22 -1.2 29.9 68 -6.3 20.6
03:40 1024 30.24 854 25.22 -1.2 29.9 68 -6.3 20.6
03:45 1025 30.27 854 25.22 -1.2 29.8 68 -6.4 20.5
03:50 1025 30.27 854 25.22 -1.4 29.6 69 -6.4 20.5
03:55 1025 30.27 854 25.22 -1.7 29 72 -6.1 21
04:00 1025 30.27 854 25.22 -2 28.4 72 -6.3 20.6
04:05 1025 30.27 854 25.22 -1.9 28.5 72 -6.4 20.5
04:10 1025 30.27 854 25.22 -1.7 28.9 70 -6.4 20.4
04:15 1025 30.27 854 25.22 -1.5 29.2 68 -6.7 19.9
04:20 1025 30.27 854 25.22 -1.4 29.5 67 -6.7 20
04:25 1025 30.27 854 25.22 -1.3 29.6 67 -6.8 19.8
04:30 1025 30.27 854 25.22 -1.5 29.4 67 -6.8 19.8
04:35 1025 30.27 854 25.22 -1.7 28.9 69 -6.7 19.9
04:40 1025 30.27 854 25.22 -1.9 28.6 68 -6.9 19.5
04:45 1025 30.27 854 25.22 -1.8 28.7 68 -7 19.5
04:50 1025 30.27 854 25.22 -1.6 29.1 66 -7.1 19.2
04:55 1025 30.27 854 25.22 -1.6 29.2 67 -6.9 19.6
05:00 1025 30.27 854 25.22 -1.8 28.8 67 -7.1 19.3
05:05 1025 30.27 854 25.22 -1.6 29.1 65 -7.3 18.9
05:10 1025 30.27 855 25.25 -1.6 29.2 65 -7.2 19
05:15 1025 30.27 855 25.25 -1.7 29 67 -7 19.4
05:20 1025 30.27 855 25.25 -2 28.5 67 -7.3 18.9
05:25 1025 30.27 855 25.25 -1.7 28.9 64 -7.6 18.4
05:30 1025 30.27 855 25.25 -1.4 29.5 63 -7.5 18.5
05:35 1025 30.27 854 25.22 -1.4 29.5 64 -7.4 18.7
05:40 1025 30.27 855 25.25 -1.6 29 65 -7.3 18.8
05:45 1025 30.27 854 25.22 -1.7 28.9 65 -7.4 18.6
05:50 1025 30.27 855 25.25 -1.6 29.2 64 -7.5 18.4
05:55 1025 30.27 855 25.25 -1.5 29.4 64 -7.4 18.6
06:00 1025 30.27 855 25.25 -1.5 29.3 63 -7.6 18.4
06:05 1026 30.3 855 25.25 -1.5 29.4 64 -7.5 18.5
06:10 1026 30.3 855 25.25 -1.4 29.5 63 -7.5 18.5
06:15 1026 30.3 855 25.25 -1.3 29.6 63 -7.4 18.7
06:20 1026 30.3 855 25.25 -1.3 29.7 64 -7.3 18.9
06:25 1026 30.3 855 25.25 -1.2 29.8 63 -7.4 18.7
06:30 1026 30.3 855 25.25 -1 30.2 63 -7.1 19.2
06:35 1026 30.3 855 25.25 -0.9 30.3 63 -7.2 19.1
06:40 1026 30.3 855 25.25 -0.9 30.4 62 -7.3 18.9
06:45 1026 30.3 855 25.25 -0.9 30.5 60 -7.8 18
06:50 1026 30.3 855 25.25 -0.5 31 59 -7.6 18.4
06:55 1026 30.3 855 25.25 -0.8 30.5 62 -7.3 18.9
07:00 1026 30.3 855 25.25 -1.1 29.9 62 -7.4 18.6
07:05 1026 30.3 855 25.25 -1.4 29.5 63 -7.5 18.5
07:10 1026 30.3 855 25.25 -1.3 29.6 62 -7.6 18.3
07:15 1026 30.3 855 25.25 -1.5 29.3 63 -7.6 18.4
07:20 1026 30.3 855 25.25 -1.7 28.9 63 -7.8 17.9
07:25 1026 30.3 855 25.25 -1.7 29 63 -7.8 17.9
07:30 1026 30.3 855 25.25 -1.6 29.2 62 -8 17.6
07:35 1026 30.3 855 25.25 -1.4 29.5 61 -8.1 17.5
07:40 1026 30.3 855 25.25 -1.3 29.6 60 -8.1 17.4
07:45 1026 30.3 855 25.25 -1.3 29.6 60 -8.1 17.5
07:50 1026 30.3 856 25.28 -1.3 29.7 59 -8.2 17.3
07:55 1026 30.3 856 25.28 -1.3 29.7 60 -8.1 17.3
08:00 1026 30.3 856 25.28 -1.2 29.8 59 -8.3 17.1
08:05 1026 30.3 856 25.28 -1.1 30 58 -8.3 17.1
08:10 1026 30.3 856 25.28 -1.1 30 58 -8.4 16.9
08:15 1026 30.3 856 25.28 -0.6 31 56 -8.3 17
08:20 1026 30.3 856 25.28 -0.5 31.1 56 -8.2 17.2
08:25 1026 30.3 856 25.28 -0.6 30.9 57 -8.2 17.2
08:30 1026 30.3 856 25.28 -0.3 31.4 56 -8.2 17.3
08:35 1026 30.3 856 25.28 0 32.1 54 -8.2 17.2
08:40 1026 30.3 856 25.28 0.3 32.6 53 -8.1 17.4
08:45 1026 30.3 856 25.28 0.4 32.8 52 -8.2 17.2
08:50 1026 30.3 856 25.28 1 33.8 50 -8.3 17
08:55 1026 30.3 856 25.28 1.7 35 48 -8.3 17.1
09:00 1026 30.3 856 25.28 2.1 35.8 46 -8.3 17.1
09:05 1026 30.3 856 25.28 2.4 36.3 46 -8.1 17.4
09:10 1026 30.3 856 25.28 2.8 37.1 44 -8.4 16.9
09:15 1026 30.3 856 25.28 2.9 37.3 44 -8.1 17.4
09:20 1026 30.3 856 25.28 3.2 37.8 44 -8 17.6
09:25 1026 30.3 856 25.28 3.1 37.5 45 -7.9 17.8
09:30 1026 30.3 856 25.28 3 37.5 45 -7.6 18.2
09:35 1026 30.3 856 25.28 2.8 37 44 -8.3 17.1
09:40 1027 30.33 856 25.28 3.1 37.6 44 -8 17.6
09:45 1027 30.33 856 25.28 3.4 38.1 43 -8.2 17.3
09:50 1027 30.33 856 25.28 3.6 38.5 42 -8.2 17.2
09:55 1027 30.33 856 25.28 3.6 38.5 42 -8.2 17.2
10:00 1027 30.33 856 25.28 4 39.2 41 -8.1 17.5
10:05 1027 30.33 856 25.28 3.9 39 41 -8.3 17.1
10:10 1027 30.33 856 25.28 3.8 38.9 42 -8.1 17.5
10:15 1027 30.33 856 25.28 4.1 39.4 41 -8.1 17.5
10:20 1027 30.33 856 25.28 4.1 39.4 41 -8 17.7
10:25 1027 30.33 856 25.28 4.3 39.7 39 -8.3 17
10:30 1027 30.33 856 25.28 4.2 39.5 40 -8.3 17
10:35 1027 30.33 856 25.28 4.5 40.1 39 -8.2 17.3
10:40 1027 30.33 856 25.28 4.5 40.1 38 -8.5 16.6
10:45 1027 30.33 856 25.28 4.8 40.7 38 -8.5 16.8
10:50 1027 30.33 856 25.28 4.7 40.5 38 -8.3 17.1
10:55 1027 30.33 856 25.28 4.8 40.6 38 -8.3 17
11:00 1027 30.33 856 25.28 5.1 41.2 37 -8.5 16.8
11:05 1027 30.33 856 25.28 5.3 41.5 36 -8.5 16.7
11:10 1027 30.33 856 25.28 4.4 40 39 -8.4 16.8
11:15 1027 30.33 856 25.28 5.1 41.1 36 -8.7 16.3
11:20 1027 30.33 856 25.28 4.9 40.8 39 -8 17.6
11:25 1027 30.33 856 25.28 5.2 41.3 36 -8.9 16
11:30 1027 30.33 856 25.28 5.1 41.2 37 -8.5 16.7
11:35 1027 30.33 856 25.28 5 41.1 36 -8.7 16.3
11:40 1027 30.33 856 25.28 4.8 40.6 38 -8.5 16.7
11:45 1027 30.33 856 25.28 4.3 39.8 40 -8.2 17.2
11:50 1027 30.33 856 25.28 3.6 38.5 41 -8.6 16.6
11:55 1027 30.33 856 25.28 4.8 40.6 37 -8.7 16.3
12:00 1027 30.33 856 25.28 5.2 41.4 38 -7.9 17.7
12:05 1027 30.33 856 25.28 4.2 39.5 39 -8.6 16.5
12:10 1027 30.33 856 25.28 4.7 40.5 39 -8 17.6
12:15 1027 30.33 856 25.28 4.1 39.4 40 -8.3 17.1
12:20 1027 30.33 856 25.28 3.9 38.9 40 -8.4 16.8
12:25 1027 30.33 856 25.28 5 41 36 -8.8 16.1
12:30 1027 30.33 856 25.28 5.1 41.2 38 -7.9 17.7
12:35 1027 30.33 856 25.28 4 39.2 40 -8.3 17.1
12:40 1027 30.33 856 25.28 5.3 41.6 35 -9 15.9
12:45 1027 30.33 856 25.28 6.3 43.4 33 -8.6 16.4
12:50 1027 30.33 856 25.28 5.9 42.6 35 -8.5 16.6
12:55 1027 30.33 856 25.28 4.8 40.7 37 -8.5 16.7
13:00 1027 30.33 856 25.28 5.2 41.3 36 -8.8 16.1
13:05 1027 30.33 856 25.28 5.9 42.7 33 -9.2 15.5
13:10 1027 30.33 856 25.28 5.7 42.2 34 -9 15.7
13:15 1027 30.33 856 25.28 6.5 43.7 31 -9.2 15.4
13:20 1026 30.3 856 25.28 6.5 43.7 32 -9 15.7
13:25 1026 30.3 856 25.28 6.4 43.6 33 -8.8 16.2
13:30 1026 30.3 855 25.25 6.7 44.1 32 -9 15.9
13:35 1026 30.3 855 25.25 6.5 43.7 33 -8.7 16.4
13:40 1026 30.3 855 25.25 6.6 43.9 32 -8.9 15.9
13:45 1026 30.3 855 25.25 6.8 44.3 32 -8.7 16.4
13:50 1026 30.3 855 25.25 7 44.5 32 -8.7 16.3
13:55 1026 30.3 855 25.25 7.6 45.7 31 -8.3 17
14:00 1026 30.3 855 25.25 7.4 45.3 32 -8.4 16.9
14:05 1026 30.3 855 25.25 7.5 45.5 29 -9.3 15.2
14:10 1026 30.3 855 25.25 7.6 45.6 30 -9 15.7
14:15 1026 30.3 855 25.25 7.7 45.9 29 -9.1 15.6
14:20 1026 30.3 855 25.25 7.2 44.9 30 -9.2 15.4
14:25 1026 30.3 855 25.25 7.2 45 29 -9.5 14.9
14:30 1026 30.3 855 25.25 7.8 46 29 -9.1 15.7
14:35 1026 30.3 855 25.25 7.9 46.2 29 -8.9 16
14:40 1026 30.3 855 25.25 7.2 44.9 30 -9.2 15.5
14:45 1026 30.3 855 25.25 7.3 45.1 30 -9.3 15.2
14:50 1026 30.3 855 25.25 7.1 44.9 31 -8.9 16
14:55 1026 30.3 855 25.25 7 44.6 31 -9.2 15.4
15:00 1026 30.3 855 25.25 7.4 45.4 30 -9.2 15.4
15:05 1026 30.3 855 25.25 7.2 45 32 -8.3 17.1
15:10 1026 30.3 855 25.25 7.1 44.7 31 -8.9 16
15:15 1026 30.3 855 25.25 7.7 45.8 29 -9.2 15.4
15:20 1026 30.3 855 25.25 8.1 46.5 29 -8.9 15.9
15:25 1026 30.3 855 25.25 8.1 46.6 29 -9.1 15.7
15:30 1026 30.3 855 25.25 7.7 45.9 29 -9 15.8
15:35 1026 30.3 855 25.25 8.1 46.6 29 -9 15.7
15:40 1026 30.3 855 25.25 8.2 46.7 29 -8.9 16
15:45 1026 30.3 855 25.25 7.8 46 31 -8.5 16.8
15:50 1026 30.3 855 25.25 6.5 43.7 34 -8.4 16.8
15:55 1026 30.3 855 25.25 5.8 42.5 33 -9.1 15.7
16:00 1026 30.3 855 25.25 6 42.8 33 -9 15.8
16:05 1026 30.3 855 25.25 6.1 43 33 -8.9 15.9
16:10 1026 30.3 855 25.25 6.3 43.4 33 -8.9 15.9
16:15 1026 30.3 855 25.25 6.5 43.8 32 -9 15.7
16:20 1026 30.3 855 25.25 6.3 43.4 33 -8.9 15.9
16:25 1026 30.3 855 25.25 6.1 42.9 33 -8.9 15.9
16:30 1026 30.3 855 25.25 5.8 42.5 33 -9 15.7
16:35 1026 30.3 855 25.25 6 42.7 33 -9.1 15.6
16:40 1026 30.3 855 25.25 6.3 43.3 33 -8.9 16
16:45 1026 30.3 855 25.25 5.8 42.4 34 -9 15.8
16:50 1026 30.3 855 25.25 5.4 41.7 34 -9.2 15.5
16:55 1026 30.3 855 25.25 5.5 41.8 34 -9.1 15.6
17:00 1026 30.3 855 25.25 5.5 41.9 34 -9.2 15.5
17:05 1026 30.3 855 25.25 5.5 41.8 34 -9.1 15.6
17:10 1026 30.3 855 25.25 5.3 41.5 35 -9.1 15.7
17:15 1026 30.3 855 25.25 5.1 41.2 35 -9.2 15.4
17:20 1026 30.3 855 25.25 4.9 40.9 36 -9.1 15.7
17:25 1026 30.3 855 25.25 4.7 40.5 37 -8.9 16
17:30 1026 30.3 855 25.25 4.5 40.2 37 -8.8 16.1
17:35 1026 30.3 855 25.25 4.4 39.8 37 -9 15.9
17:40 1026 30.3 856 25.28 4.3 39.8 38 -8.9 16
17:45 1026 30.3 856 25.28 4.2 39.6 38 -8.8 16.2
17:50 1026 30.3 856 25.28 4 39.2 41 -8.2 17.3
17:55 1026 30.3 856 25.28 3.7 38.7 42 -8.1 17.4
18:00 1026 30.3 856 25.28 3.2 37.8 47 -7.1 19.1
18:05 1026 30.3 856 25.28 2.4 36.3 49 -7.2 19.1
18:10 1026 30.3 855 25.25 2.4 36.3 49 -7.4 18.7
18:15 1026 30.3 856 25.28 2.4 36.4 48 -7.4 18.6
18:20 1026 30.3 856 25.28 2.3 36.1 49 -7.3 18.9
18:25 1026 30.3 856 25.28 2.2 35.9 50 -7.2 19
18:30 1026 30.3 856 25.28 1.7 35.1 52 -7.2 19.1
18:35 1026 30.3 856 25.28 1.4 34.6 54 -7 19.5
18:40 1026 30.3 856 25.28 1.3 34.3 55 -6.8 19.7
18:45 1026 30.3 856 25.28 1.3 34.3 56 -6.7 20
18:50 1026 30.3 856 25.28 1.3 34.4 54 -7.1 19.3
18:55 1026 30.3 856 25.28 1.5 34.7 53 -7.1 19.1
19:00 1026 30.3 856 25.28 1.4 34.6 53 -7.1 19.1
19:05 1026 30.3 856 25.28 1.5 34.7 52 -7.3 18.9
19:10 1026 30.3 856 25.28 1.6 34.9 51 -7.4 18.7
19:15 1026 30.3 856 25.28 1.7 35.1 52 -7.3 18.9
19:20 1026 30.3 856 25.28 1.3 34.4 52 -7.4 18.7
19:25 1026 30.3 856 25.28 1.3 34.3 52 -7.6 18.4
19:30 1026 30.3 856 25.28 1.7 35.1 49 -7.8 18
19:35 1027 30.33 856 25.28 2 35.6 48 -7.8 18
19:40 1027 30.33 856 25.28 2 35.6 51 -7 19.4
19:45 1027 30.33 856 25.28 1.3 34.4 54 -6.9 19.5
19:50 1027 30.33 856 25.28 1 33.7 55 -7.1 19.2
19:55 1027 30.33 856 25.28 0.9 33.6 55 -7.1 19.2
20:00 1027 30.33 856 25.28 0.7 33.2 56 -7.2 19.1
20:05 1027 30.33 856 25.28 0.6 33 57 -7.1 19.2
20:10 1027 30.33 856 25.28 0.7 33.2 56 -7.1 19.2
20:15 1027 30.33 856 25.28 0.3 32.6 58 -7 19.4
20:20 1027 30.33 856 25.28 0.5 33 55 -7.4 18.6
20:25 1027 30.33 856 25.28 0.8 33.5 54 -7.4 18.6
20:30 1027 30.33 856 25.28 0.8 33.4 56 -7.1 19.2
20:35 1027 30.33 856 25.28 0.8 33.4 54 -7.6 18.3
20:40 1027 30.33 856 25.28 1.2 34.1 53 -7.4 18.6
20:45 1027 30.33 856 25.28 0.8 33.5 56 -7 19.3
20:50 1027 30.33 856 25.28 0.6 33 55 -7.4 18.6
20:55 1027 30.33 856 25.28 1 33.8 53 -7.6 18.3
21:00 1027 30.33 856 25.28 1.1 34 51 -7.8 17.9
21:05 1027 30.33 856 25.28 1.4 34.5 50 -7.8 18
21:10 1027 30.33 856 25.28 1.5 34.8 50 -7.7 18.1
21:15 1027 30.33 856 25.28 1.3 34.3 52 -7.6 18.4
21:20 1027 30.33 856 25.28 1.3 34.3 51 -7.8 18
21:25 1027 30.33 856 25.28 1.3 34.4 51 -7.8 17.9
21:30 1027 30.33 856 25.28 1.5 34.7 50 -7.7 18.1
21:35 1027 30.33 856 25.28 1.4 34.5 54 -6.9 19.5
21:40 1027 30.33 856 25.28 1 33.9 55 -7.1 19.2
21:45 1027 30.33 856 25.28 1.2 34.2 52 -7.6 18.4
21:50 1027 30.33 856 25.28 1.1 34 54 -7.3 18.9
21:55 1027 30.33 856 25.28 1 33.8 53 -7.4 18.6
22:00 1027 30.33 856 25.28 0.8 33.5 53 -7.7 18.1
22:05 1027 30.33 856 25.28 0.9 33.6 54 -7.5 18.5
22:10 1027 30.33 856 25.28 0.7 33.3 55 -7.3 18.8
22:15 1027 30.33 856 25.28 0.7 33.3 55 -7.3 18.9
22:20 1027 30.33 856 25.28 0.4 32.8 56 -7.3 18.9
22:25 1027 30.33 856 25.28 0.1 32.3 57 -7.3 18.8
22:30 1027 30.33 856 25.28 0.2 32.3 57 -7.4 18.8
22:35 1027 30.33 856 25.28 0.4 32.7 55 -7.5 18.5
22:40 1027 30.33 856 25.28 0.6 33.1 55 -7.4 18.6
22:45 1027 30.33 856 25.28 0.5 32.9 55 -7.6 18.4
22:50 1027 30.33 856 25.28 0.6 33 55 -7.4 18.7
22:55 1027 30.33 856 25.28 0.2 32.3 57 -7.4 18.7
23:00 1027 30.33 856 25.28 0.4 32.7 54 -7.8 18
23:05 1027 30.33 856 25.28 0.1 32.1 56 -7.6 18.3
23:10 1027 30.33 856 25.28 0 32 57 -7.6 18.3
23:15 1027 30.33 856 25.28 -0.2 31.6 58 -7.5 18.6
23:20 1027 30.33 856 25.28 -0.4 31.2 60 -7.3 18.9
23:25 1027 30.33 856 25.28 -0.4 31.3 58 -7.6 18.3
23:30 1027 30.33 856 25.28 -0.3 31.5 58 -7.6 18.3
23:35 1027 30.33 856 25.28 -0.1 31.9 57 -7.6 18.3
23:40 1027 30.33 856 25.28 -0.4 31.3 60 -7.3 18.8
23:45 1027 30.33 856 25.28 -0.8 30.6 59 -7.7 18.1
23:50 1027 30.33 856 25.28 -0.4 31.4 58 -7.7 18.1
23:55 1027 30.33 856 25.28 0.1 32.1 56 -7.8 17.9
24:00 1027 30.33 856 25.28 0.4 32.7 55 -7.5 18.4